sensor_id;sensor_type;location;lat;lon;timestamp;P1;durP1;ratioP1;P2;durP2;ratioP2
27684;SDS011;46113;50.130;8.526;2022-07-23T04:17:41;6.05;;;4.40;;
27684;SDS011;46113;50.130;8.526;2022-07-23T04:20:08;6.03;;;4.10;;
27684;SDS011;46113;50.130;8.526;2022-07-23T04:22:46;5.05;;;4.55;;
27684;SDS011;46113;50.130;8.526;2022-07-23T04:25:13;6.88;;;4.45;;
27684;SDS011;46113;50.130;8.526;2022-07-23T04:27:43;4.97;;;4.40;;
27684;SDS011;46113;50.130;8.526;2022-07-23T04:30:10;6.30;;;3.95;;
27684;SDS011;46113;50.130;8.526;2022-07-23T04:32:38;4.85;;;4.35;;
27684;SDS011;46113;50.130;8.526;2022-07-23T04:35:12;4.78;;;4.25;;
27684;SDS011;46113;50.130;8.526;2022-07-23T04:37:39;5.90;;;4.57;;
27684;SDS011;46113;50.130;8.526;2022-07-23T04:40:06;4.13;;;3.70;;
27684;SDS011;46113;50.130;8.526;2022-07-23T04:42:34;5.88;;;3.90;;
27684;SDS011;46113;50.130;8.526;2022-07-23T04:45:01;8.25;;;5.68;;
27684;SDS011;46113;50.130;8.526;2022-07-23T04:47:27;5.15;;;3.97;;
27684;SDS011;46113;50.130;8.526;2022-07-23T04:49:56;4.28;;;3.78;;
27684;SDS011;46113;50.130;8.526;2022-07-23T04:52:24;5.88;;;4.78;;
27684;SDS011;46113;50.130;8.526;2022-07-23T04:54:51;10.75;;;4.75;;
27684;SDS011;46113;50.130;8.526;2022-07-23T04:57:17;4.95;;;3.60;;
27684;SDS011;46113;50.130;8.526;2022-07-23T04:59:44;4.10;;;3.67;;
27684;SDS011;46113;50.130;8.526;2022-07-23T05:02:11;4.85;;;3.85;;
27684;SDS011;46113;50.130;8.526;2022-07-23T05:04:39;6.15;;;4.40;;
27684;SDS011;46113;50.130;8.526;2022-07-23T05:07:05;7.75;;;3.90;;
27684;SDS011;46113;50.130;8.526;2022-07-23T05:09:33;5.30;;;4.30;;
27684;SDS011;46113;50.130;8.526;2022-07-23T05:12:00;7.78;;;4.50;;
27684;SDS011;46113;50.130;8.526;2022-07-23T05:14:29;6.05;;;4.63;;
27684;SDS011;46113;50.130;8.526;2022-07-23T05:16:56;6.80;;;4.20;;
27684;SDS011;46113;50.130;8.526;2022-07-23T05:19:24;4.82;;;3.75;;
27684;SDS011;46113;50.130;8.526;2022-07-23T05:21:52;4.65;;;3.42;;
27684;SDS011;46113;50.130;8.526;2022-07-23T05:24:19;5.32;;;4.32;;
27684;SDS011;46113;50.130;8.526;2022-07-23T05:26:46;5.45;;;4.50;;
27684;SDS011;46113;50.130;8.526;2022-07-23T05:29:12;5.78;;;4.43;;
27684;SDS011;46113;50.130;8.526;2022-07-23T05:31:39;10.07;;;3.75;;
27684;SDS011;46113;50.130;8.526;2022-07-23T05:34:06;9.48;;;4.13;;
27684;SDS011;46113;50.130;8.526;2022-07-23T05:36:34;6.68;;;4.50;;
27684;SDS011;46113;50.130;8.526;2022-07-23T05:39:01;6.50;;;4.03;;
27684;SDS011;46113;50.130;8.526;2022-07-23T05:41:32;4.97;;;4.00;;
27684;SDS011;46113;50.130;8.526;2022-07-23T05:44:01;7.85;;;4.22;;
27684;SDS011;46113;50.130;8.526;2022-07-23T05:46:29;6.43;;;4.05;;
27684;SDS011;46113;50.130;8.526;2022-07-23T05:49:01;5.85;;;4.13;;
27684;SDS011;46113;50.130;8.526;2022-07-23T05:52:07;5.60;;;4.47;;
27684;SDS011;46113;50.130;8.526;2022-07-23T05:54:54;4.47;;;3.95;;
27684;SDS011;46113;50.130;8.526;2022-07-23T05:57:21;5.22;;;3.95;;
27684;SDS011;46113;50.130;8.526;2022-07-23T05:59:51;4.80;;;3.78;;
27684;SDS011;46113;50.130;8.526;2022-07-23T06:02:17;4.80;;;3.33;;
27684;SDS011;46113;50.130;8.526;2022-07-23T06:04:44;4.80;;;3.08;;
27684;SDS011;46113;50.130;8.526;2022-07-23T06:07:35;6.22;;;3.97;;
27684;SDS011;46113;50.130;8.526;2022-07-23T06:10:03;8.90;;;4.10;;
27684;SDS011;46113;50.130;8.526;2022-07-23T06:12:30;5.22;;;2.85;;
27684;SDS011;46113;50.130;8.526;2022-07-23T06:14:56;4.47;;;2.88;;
27684;SDS011;46113;50.130;8.526;2022-07-23T06:17:23;6.43;;;3.60;;
27684;SDS011;46113;50.130;8.526;2022-07-23T06:19:52;4.40;;;3.33;;
27684;SDS011;46113;50.130;8.526;2022-07-23T06:22:19;3.25;;;2.95;;
27684;SDS011;46113;50.130;8.526;2022-07-23T06:24:46;5.00;;;3.40;;
27684;SDS011;46113;50.130;8.526;2022-07-23T06:27:12;4.03;;;3.22;;
27684;SDS011;46113;50.130;8.526;2022-07-23T06:29:39;4.88;;;3.10;;
27684;SDS011;46113;50.130;8.526;2022-07-23T06:32:07;6.47;;;3.25;;
27684;SDS011;46113;50.130;8.526;2022-07-23T06:34:34;4.38;;;3.03;;
27684;SDS011;46113;50.130;8.526;2022-07-23T06:37:00;3.72;;;3.10;;
27684;SDS011;46113;50.130;8.526;2022-07-23T06:39:27;4.40;;;2.97;;
27684;SDS011;46113;50.130;8.526;2022-07-23T06:41:56;5.07;;;3.30;;
27684;SDS011;46113;50.130;8.526;2022-07-23T06:44:36;9.02;;;3.60;;
27684;SDS011;46113;50.130;8.526;2022-07-23T06:47:04;4.18;;;3.20;;
27684;SDS011;46113;50.130;8.526;2022-07-23T06:49:33;5.55;;;3.60;;
27684;SDS011;46113;50.130;8.526;2022-07-23T06:51:59;3.88;;;3.47;;
27684;SDS011;46113;50.130;8.526;2022-07-23T06:54:26;5.13;;;4.22;;
27684;SDS011;46113;50.130;8.526;2022-07-23T06:56:52;4.95;;;3.25;;
27684;SDS011;46113;50.130;8.526;2022-07-23T06:59:19;4.70;;;3.08;;
27684;SDS011;46113;50.130;8.526;2022-07-23T07:01:46;4.47;;;3.15;;
27684;SDS011;46113;50.130;8.526;2022-07-23T07:04:12;5.60;;;3.25;;
27684;SDS011;46113;50.130;8.526;2022-07-23T07:06:39;3.92;;;3.20;;
27684;SDS011;46113;50.130;8.526;2022-07-23T07:09:05;4.70;;;3.13;;
27684;SDS011;46113;50.130;8.526;2022-07-23T07:11:49;3.08;;;2.83;;
27684;SDS011;46113;50.130;8.526;2022-07-23T07:14:16;9.10;;;5.50;;
27684;SDS011;46113;50.130;8.526;2022-07-23T07:16:42;4.53;;;3.40;;
27684;SDS011;46113;50.130;8.526;2022-07-23T07:19:09;4.07;;;3.40;;
27684;SDS011;46113;50.130;8.526;2022-07-23T07:21:35;7.20;;;3.50;;
27684;SDS011;46113;50.130;8.526;2022-07-23T07:24:02;4.65;;;3.15;;
27684;SDS011;46113;50.130;8.526;2022-07-23T07:26:29;3.13;;;2.33;;
27684;SDS011;46113;50.130;8.526;2022-07-23T07:28:57;4.78;;;3.05;;
27684;SDS011;46113;50.130;8.526;2022-07-23T07:31:24;2.83;;;2.63;;
27684;SDS011;46113;50.130;8.526;2022-07-23T07:33:51;4.47;;;2.90;;
27684;SDS011;46113;50.130;8.526;2022-07-23T07:36:17;4.28;;;3.15;;
27684;SDS011;46113;50.130;8.526;2022-07-23T07:38:44;3.42;;;3.13;;
27684;SDS011;46113;50.130;8.526;2022-07-23T07:41:11;7.53;;;3.38;;
27684;SDS011;46113;50.130;8.526;2022-07-23T07:43:38;6.55;;;3.85;;
27684;SDS011;46113;50.130;8.526;2022-07-23T07:46:05;5.75;;;3.15;;
27684;SDS011;46113;50.130;8.526;2022-07-23T07:48:36;3.00;;;2.78;;
27684;SDS011;46113;50.130;8.526;2022-07-23T07:51:03;4.07;;;3.22;;
27684;SDS011;46113;50.130;8.526;2022-07-23T07:53:31;3.47;;;3.17;;
27684;SDS011;46113;50.130;8.526;2022-07-23T07:55:57;3.50;;;2.92;;
27684;SDS011;46113;50.130;8.526;2022-07-23T07:58:24;3.75;;;2.90;;
27684;SDS011;46113;50.130;8.526;2022-07-23T08:00:51;4.68;;;3.10;;
27684;SDS011;46113;50.130;8.526;2022-07-23T08:03:18;4.35;;;3.33;;
27684;SDS011;46113;50.130;8.526;2022-07-23T08:05:45;3.38;;;2.88;;
27684;SDS011;46113;50.130;8.526;2022-07-23T08:08:11;4.93;;;3.15;;
27684;SDS011;46113;50.130;8.526;2022-07-23T08:10:41;4.28;;;3.88;;
27684;SDS011;46113;50.130;8.526;2022-07-23T08:13:08;4.22;;;3.33;;
27684;SDS011;46113;50.130;8.526;2022-07-23T08:15:40;4.18;;;3.78;;
27684;SDS011;46113;50.130;8.526;2022-07-23T08:18:07;3.95;;;2.65;;
27684;SDS011;46113;50.130;8.526;2022-07-23T08:20:33;4.97;;;2.85;;
27684;SDS011;46113;50.130;8.526;2022-07-23T08:23:02;7.53;;;2.92;;
27684;SDS011;46113;50.130;8.526;2022-07-23T08:25:34;7.63;;;3.58;;
27684;SDS011;46113;50.130;8.526;2022-07-23T08:28:06;6.35;;;3.67;;
27684;SDS011;46113;50.130;8.526;2022-07-23T08:30:38;4.05;;;3.53;;
27684;SDS011;46113;50.130;8.526;2022-07-23T08:33:07;4.20;;;3.45;;
27684;SDS011;46113;50.130;8.526;2022-07-23T08:36:00;3.20;;;2.85;;
27684;SDS011;46113;50.130;8.526;2022-07-23T08:38:34;3.47;;;3.17;;
27684;SDS011;46113;50.130;8.526;2022-07-23T08:41:02;4.68;;;2.90;;
27684;SDS011;46113;50.130;8.526;2022-07-23T08:43:32;4.55;;;3.13;;
27684;SDS011;46113;50.130;8.526;2022-07-23T08:46:01;4.45;;;3.08;;
27684;SDS011;46113;50.130;8.526;2022-07-23T08:48:33;4.63;;;3.78;;
27684;SDS011;46113;50.130;8.526;2022-07-23T08:51:05;5.32;;;3.80;;
27684;SDS011;46113;50.130;8.526;2022-07-23T08:53:33;3.78;;;3.17;;
27684;SDS011;46113;50.130;8.526;2022-07-23T08:56:03;4.97;;;3.13;;
27684;SDS011;46113;50.130;8.526;2022-07-23T09:01:43;4.30;;;3.25;;
27684;SDS011;46113;50.130;8.526;2022-07-23T09:04:10;5.38;;;3.72;;
27684;SDS011;46113;50.130;8.526;2022-07-23T09:06:38;8.48;;;3.35;;
27684;SDS011;46113;50.130;8.526;2022-07-23T09:09:19;4.25;;;3.28;;
27684;SDS011;46113;50.130;8.526;2022-07-23T09:14:44;6.00;;;3.22;;
27684;SDS011;46113;50.130;8.526;2022-07-23T09:17:15;3.90;;;2.70;;
27684;SDS011;46113;50.130;8.526;2022-07-23T09:19:43;3.60;;;3.17;;
27684;SDS011;46113;50.130;8.526;2022-07-23T09:22:18;4.05;;;2.85;;
27684;SDS011;46113;50.130;8.526;2022-07-23T09:25:06;4.88;;;3.10;;
27684;SDS011;46113;50.130;8.526;2022-07-23T09:30:21;4.80;;;2.83;;
27684;SDS011;46113;50.130;8.526;2022-07-23T09:35:50;4.35;;;3.22;;
27684;SDS011;46113;50.130;8.526;2022-07-23T09:38:19;8.27;;;2.95;;
27684;SDS011;46113;50.130;8.526;2022-07-23T09:41:05;3.85;;;2.92;;
27684;SDS011;46113;50.130;8.526;2022-07-23T09:43:35;5.63;;;3.10;;
27684;SDS011;46113;50.130;8.526;2022-07-23T09:57:08;4.97;;;3.20;;
27684;SDS011;46113;50.130;8.526;2022-07-23T09:59:41;3.38;;;2.80;;
27684;SDS011;46113;50.130;8.526;2022-07-23T10:02:10;3.97;;;2.88;;
27684;SDS011;46113;50.130;8.526;2022-07-23T10:04:59;4.88;;;3.05;;
27684;SDS011;46113;50.130;8.526;2022-07-23T10:07:51;3.72;;;3.00;;
27684;SDS011;46113;50.130;8.526;2022-07-23T10:10:38;4.25;;;3.42;;
27684;SDS011;46113;50.130;8.526;2022-07-23T10:13:25;6.28;;;4.00;;
27684;SDS011;46113;50.130;8.526;2022-07-23T10:16:03;4.22;;;3.22;;
27684;SDS011;46113;50.130;8.526;2022-07-23T10:18:30;5.38;;;3.45;;
27684;SDS011;46113;50.130;8.526;2022-07-23T10:20:57;4.38;;;3.38;;
27684;SDS011;46113;50.130;8.526;2022-07-23T10:23:38;4.57;;;2.72;;
27684;SDS011;46113;50.130;8.526;2022-07-23T10:26:19;16.75;;;4.82;;
27684;SDS011;46113;50.130;8.526;2022-07-23T10:37:07;6.75;;;3.10;;
27684;SDS011;46113;50.130;8.526;2022-07-23T10:39:47;4.55;;;3.40;;
27684;SDS011;46113;50.130;8.526;2022-07-23T10:42:15;5.60;;;3.03;;
27684;SDS011;46113;50.130;8.526;2022-07-23T10:44:44;6.70;;;4.10;;
27684;SDS011;46113;50.130;8.526;2022-07-23T10:47:12;12.05;;;6.15;;
27684;SDS011;46113;50.130;8.526;2022-07-23T10:50:19;5.38;;;4.68;;
27684;SDS011;46113;50.130;8.526;2022-07-23T10:58:05;5.03;;;3.15;;
27684;SDS011;46113;50.130;8.526;2022-07-23T11:00:32;11.30;;;6.95;;
27684;SDS011;46113;50.130;8.526;2022-07-23T11:03:01;7.97;;;5.63;;
27684;SDS011;46113;50.130;8.526;2022-07-23T11:05:43;7.93;;;4.03;;
27684;SDS011;46113;50.130;8.526;2022-07-23T11:08:16;3.20;;;2.85;;
27684;SDS011;46113;50.130;8.526;2022-07-23T11:10:51;3.60;;;3.13;;
27684;SDS011;46113;50.130;8.526;2022-07-23T11:13:35;4.63;;;2.72;;
27684;SDS011;46113;50.130;8.526;2022-07-23T11:27:05;3.63;;;3.00;;
27684;SDS011;46113;50.130;8.526;2022-07-23T11:31:58;3.92;;;3.55;;
27684;SDS011;46113;50.130;8.526;2022-07-23T11:37:10;5.63;;;3.55;;
27684;SDS011;46113;50.130;8.526;2022-07-23T11:39:38;6.85;;;3.50;;
27684;SDS011;46113;50.130;8.526;2022-07-23T11:42:06;3.22;;;2.80;;
27684;SDS011;46113;50.130;8.526;2022-07-23T11:44:34;3.30;;;3.00;;
27684;SDS011;46113;50.130;8.526;2022-07-23T11:47:03;4.28;;;3.10;;
27684;SDS011;46113;50.130;8.526;2022-07-23T11:49:35;3.55;;;2.72;;
27684;SDS011;46113;50.130;8.526;2022-07-23T11:52:06;4.32;;;3.33;;
27684;SDS011;46113;50.130;8.526;2022-07-23T11:54:35;3.30;;;2.90;;
27684;SDS011;46113;50.130;8.526;2022-07-23T11:57:06;3.00;;;2.80;;
27684;SDS011;46113;50.130;8.526;2022-07-23T11:59:33;6.07;;;3.03;;
27684;SDS011;46113;50.130;8.526;2022-07-23T12:02:03;3.67;;;3.20;;
27684;SDS011;46113;50.130;8.526;2022-07-23T12:04:41;7.63;;;3.42;;
27684;SDS011;46113;50.130;8.526;2022-07-23T12:07:23;4.70;;;4.30;;
27684;SDS011;46113;50.130;8.526;2022-07-23T12:09:56;3.97;;;3.58;;
27684;SDS011;46113;50.130;8.526;2022-07-23T12:15:56;5.47;;;3.70;;
27684;SDS011;46113;50.130;8.526;2022-07-23T12:18:24;3.22;;;2.92;;
27684;SDS011;46113;50.130;8.526;2022-07-23T12:20:54;3.67;;;2.92;;
27684;SDS011;46113;50.130;8.526;2022-07-23T12:23:37;4.32;;;3.92;;
27684;SDS011;46113;50.130;8.526;2022-07-23T12:26:04;3.38;;;3.17;;
27684;SDS011;46113;50.130;8.526;2022-07-23T12:28:33;3.33;;;3.03;;
27684;SDS011;46113;50.130;8.526;2022-07-23T12:31:04;3.42;;;3.10;;
27684;SDS011;46113;50.130;8.526;2022-07-23T12:33:36;5.25;;;3.38;;
27684;SDS011;46113;50.130;8.526;2022-07-23T12:36:07;3.30;;;3.08;;
27684;SDS011;46113;50.130;8.526;2022-07-23T12:38:39;4.90;;;3.58;;
27684;SDS011;46113;50.130;8.526;2022-07-23T12:41:09;3.33;;;3.05;;
27684;SDS011;46113;50.130;8.526;2022-07-23T12:43:37;3.38;;;3.05;;
27684;SDS011;46113;50.130;8.526;2022-07-23T12:46:14;4.40;;;3.85;;
27684;SDS011;46113;50.130;8.526;2022-07-23T12:51:21;4.55;;;3.33;;
27684;SDS011;46113;50.130;8.526;2022-07-23T12:54:09;3.72;;;3.42;;
27684;SDS011;46113;50.130;8.526;2022-07-23T12:56:37;3.92;;;3.63;;
27684;SDS011;46113;50.130;8.526;2022-07-23T12:59:06;3.92;;;3.63;;
27684;SDS011;46113;50.130;8.526;2022-07-23T13:01:42;4.10;;;3.70;;
27684;SDS011;46113;50.130;8.526;2022-07-23T13:04:29;4.20;;;3.58;;
27684;SDS011;46113;50.130;8.526;2022-07-23T13:06:58;5.55;;;3.63;;
27684;SDS011;46113;50.130;8.526;2022-07-23T13:09:31;6.97;;;4.28;;
27684;SDS011;46113;50.130;8.526;2022-07-23T13:12:07;6.20;;;3.70;;
27684;SDS011;46113;50.130;8.526;2022-07-23T13:14:36;3.50;;;2.97;;
27684;SDS011;46113;50.130;8.526;2022-07-23T13:17:03;4.03;;;3.15;;
27684;SDS011;46113;50.130;8.526;2022-07-23T13:19:32;4.15;;;3.55;;
27684;SDS011;46113;50.130;8.526;2022-07-23T13:22:00;8.07;;;4.10;;
27684;SDS011;46113;50.130;8.526;2022-07-23T13:24:34;3.45;;;3.15;;
27684;SDS011;46113;50.130;8.526;2022-07-23T13:27:04;3.42;;;3.13;;
27684;SDS011;46113;50.130;8.526;2022-07-23T13:29:32;3.63;;;3.33;;
27684;SDS011;46113;50.130;8.526;2022-07-23T13:31:58;4.00;;;3.60;;
27684;SDS011;46113;50.130;8.526;2022-07-23T13:34:25;3.95;;;3.55;;
27684;SDS011;46113;50.130;8.526;2022-07-23T13:36:52;5.18;;;3.53;;
27684;SDS011;46113;50.130;8.526;2022-07-23T13:39:19;3.85;;;3.47;;
27684;SDS011;46113;50.130;8.526;2022-07-23T13:41:46;4.80;;;3.20;;
27684;SDS011;46113;50.130;8.526;2022-07-23T13:44:16;4.18;;;3.78;;
27684;SDS011;46113;50.130;8.526;2022-07-23T13:46:45;4.68;;;3.42;;
27684;SDS011;46113;50.130;8.526;2022-07-23T13:49:13;3.78;;;3.42;;
27684;SDS011;46113;50.130;8.526;2022-07-23T13:51:41;5.28;;;4.15;;
27684;SDS011;46113;50.130;8.526;2022-07-23T13:54:07;4.18;;;2.97;;
27684;SDS011;46113;50.130;8.526;2022-07-23T13:56:34;4.10;;;3.70;;
27684;SDS011;46113;50.130;8.526;2022-07-23T13:59:02;5.53;;;3.92;;
27684;SDS011;46113;50.130;8.526;2022-07-23T14:01:32;4.45;;;3.75;;
27684;SDS011;46113;50.130;8.526;2022-07-23T14:04:11;5.15;;;3.80;;
27684;SDS011;46113;50.130;8.526;2022-07-23T14:06:37;4.35;;;3.20;;
27684;SDS011;46113;50.130;8.526;2022-07-23T14:09:04;3.92;;;3.30;;
27684;SDS011;46113;50.130;8.526;2022-07-23T14:11:33;4.18;;;3.55;;
27684;SDS011;46113;50.130;8.526;2022-07-23T14:14:00;4.15;;;3.05;;
27684;SDS011;46113;50.130;8.526;2022-07-23T14:16:28;5.85;;;3.65;;
27684;SDS011;46113;50.130;8.526;2022-07-23T14:18:55;4.25;;;3.85;;
27684;SDS011;46113;50.130;8.526;2022-07-23T14:21:22;3.00;;;2.78;;
27684;SDS011;46113;50.130;8.526;2022-07-23T14:23:49;4.70;;;3.42;;
27684;SDS011;46113;50.130;8.526;2022-07-23T14:26:18;3.75;;;3.40;;
27684;SDS011;46113;50.130;8.526;2022-07-23T14:28:45;7.70;;;3.42;;
27684;SDS011;46113;50.130;8.526;2022-07-23T14:31:14;12.05;;;4.20;;
27684;SDS011;46113;50.130;8.526;2022-07-23T14:33:47;7.10;;;3.67;;
27684;SDS011;46113;50.130;8.526;2022-07-23T14:36:14;5.03;;;3.17;;
27684;SDS011;46113;50.130;8.526;2022-07-23T14:38:41;3.47;;;3.17;;
27684;SDS011;46113;50.130;8.526;2022-07-23T14:41:08;4.85;;;3.10;;
27684;SDS011;46113;50.130;8.526;2022-07-23T14:43:36;4.72;;;3.33;;
27684;SDS011;46113;50.130;8.526;2022-07-23T14:46:04;3.92;;;3.63;;
27684;SDS011;46113;50.130;8.526;2022-07-23T14:48:31;3.42;;;3.10;;
27684;SDS011;46113;50.130;8.526;2022-07-23T14:50:57;3.78;;;3.17;;
27684;SDS011;46113;50.130;8.526;2022-07-23T14:53:24;2.85;;;2.55;;
27684;SDS011;46113;50.130;8.526;2022-07-23T14:55:51;4.07;;;3.20;;
27684;SDS011;46113;50.130;8.526;2022-07-23T14:58:17;5.10;;;3.08;;
27684;SDS011;46113;50.130;8.526;2022-07-23T15:00:44;3.63;;;3.17;;
27684;SDS011;46113;50.130;8.526;2022-07-23T15:03:11;3.28;;;2.88;;
27684;SDS011;46113;50.130;8.526;2022-07-23T15:05:38;5.05;;;2.75;;
27684;SDS011;46113;50.130;8.526;2022-07-23T15:08:05;3.20;;;2.90;;
27684;SDS011;46113;50.130;8.526;2022-07-23T15:10:34;4.13;;;2.92;;
27684;SDS011;46113;50.130;8.526;2022-07-23T15:13:03;2.45;;;2.25;;
27684;SDS011;46113;50.130;8.526;2022-07-23T15:15:30;4.15;;;3.25;;
27684;SDS011;46113;50.130;8.526;2022-07-23T15:17:57;3.35;;;3.00;;
27684;SDS011;46113;50.130;8.526;2022-07-23T15:20:23;5.07;;;3.00;;
27684;SDS011;46113;50.130;8.526;2022-07-23T15:23:01;4.80;;;2.85;;
27684;SDS011;46113;50.130;8.526;2022-07-23T15:25:28;3.65;;;2.97;;
27684;SDS011;46113;50.130;8.526;2022-07-23T15:27:56;3.20;;;2.70;;
27684;SDS011;46113;50.130;8.526;2022-07-23T15:30:24;9.00;;;2.42;;
27684;SDS011;46113;50.130;8.526;2022-07-23T15:32:53;3.72;;;2.47;;
27684;SDS011;46113;50.130;8.526;2022-07-23T15:35:20;6.88;;;2.85;;
27684;SDS011;46113;50.130;8.526;2022-07-23T15:37:46;4.90;;;2.28;;
27684;SDS011;46113;50.130;8.526;2022-07-23T15:40:13;4.00;;;2.90;;
27684;SDS011;46113;50.130;8.526;2022-07-23T15:42:39;6.15;;;2.88;;
27684;SDS011;46113;50.130;8.526;2022-07-23T15:45:06;4.47;;;2.30;;
27684;SDS011;46113;50.130;8.526;2022-07-23T15:47:36;3.20;;;2.65;;
27684;SDS011;46113;50.130;8.526;2022-07-23T15:50:06;5.70;;;2.97;;
27684;SDS011;46113;50.130;8.526;2022-07-23T15:52:33;3.00;;;2.13;;
27684;SDS011;46113;50.130;8.526;2022-07-23T15:55:00;3.45;;;2.67;;
27684;SDS011;46113;50.130;8.526;2022-07-23T15:57:27;2.92;;;2.40;;
27684;SDS011;46113;50.130;8.526;2022-07-23T15:59:57;2.75;;;2.50;;
27684;SDS011;46113;50.130;8.526;2022-07-23T16:02:25;4.68;;;2.33;;
27684;SDS011;46113;50.130;8.526;2022-07-23T16:04:53;2.30;;;2.13;;
27684;SDS011;46113;50.130;8.526;2022-07-23T16:07:20;5.90;;;2.70;;
27684;SDS011;46113;50.130;8.526;2022-07-23T16:09:47;3.78;;;2.65;;
27684;SDS011;46113;50.130;8.526;2022-07-23T16:12:14;3.70;;;2.65;;
27684;SDS011;46113;50.130;8.526;2022-07-23T16:14:40;2.20;;;2.00;;
27684;SDS011;46113;50.130;8.526;2022-07-23T16:17:08;3.40;;;2.28;;
27684;SDS011;46113;50.130;8.526;2022-07-23T16:19:38;2.97;;;2.55;;
27684;SDS011;46113;50.130;8.526;2022-07-23T16:22:05;2.88;;;2.50;;
27684;SDS011;46113;50.130;8.526;2022-07-23T16:24:33;2.53;;;2.33;;
27684;SDS011;46113;50.130;8.526;2022-07-23T16:27:00;2.75;;;2.55;;
27684;SDS011;46113;50.130;8.526;2022-07-23T16:29:31;3.60;;;2.75;;
27684;SDS011;46113;50.130;8.526;2022-07-23T16:31:58;2.42;;;2.13;;
27684;SDS011;46113;50.130;8.526;2022-07-23T16:34:26;2.47;;;2.28;;
27684;SDS011;46113;50.130;8.526;2022-07-23T16:36:54;2.55;;;2.10;;
27684;SDS011;46113;50.130;8.526;2022-07-23T16:39:20;3.30;;;2.13;;
27684;SDS011;46113;50.130;8.526;2022-07-23T16:41:47;3.22;;;2.47;;
27684;SDS011;46113;50.130;8.526;2022-07-23T16:44:14;2.17;;;1.98;;
27684;SDS011;46113;50.130;8.526;2022-07-23T16:46:41;2.45;;;2.25;;
27684;SDS011;46113;50.130;8.526;2022-07-23T16:49:08;2.75;;;2.53;;
27684;SDS011;46113;50.130;8.526;2022-07-23T16:51:35;5.85;;;2.60;;
27684;SDS011;46113;50.130;8.526;2022-07-23T16:54:02;3.45;;;2.58;;
27684;SDS011;46113;50.130;8.526;2022-07-23T16:56:29;4.03;;;2.50;;
27684;SDS011;46113;50.130;8.526;2022-07-23T16:59:02;2.92;;;2.05;;
27684;SDS011;46113;50.130;8.526;2022-07-23T17:01:30;4.43;;;2.28;;
27684;SDS011;46113;50.130;8.526;2022-07-23T17:03:56;2.72;;;2.30;;
27684;SDS011;46113;50.130;8.526;2022-07-23T17:06:23;3.50;;;2.45;;
27684;SDS011;46113;50.130;8.526;2022-07-23T17:08:50;4.40;;;2.08;;
27684;SDS011;46113;50.130;8.526;2022-07-23T17:11:16;3.38;;;2.50;;
27684;SDS011;46113;50.130;8.526;2022-07-23T17:13:43;2.88;;;2.22;;
27684;SDS011;46113;50.130;8.526;2022-07-23T17:16:09;2.38;;;2.17;;
27684;SDS011;46113;50.130;8.526;2022-07-23T17:18:36;2.33;;;2.13;;
27684;SDS011;46113;50.130;8.526;2022-07-23T17:21:03;4.38;;;2.42;;
27684;SDS011;46113;50.130;8.526;2022-07-23T17:23:32;4.43;;;2.53;;
27684;SDS011;46113;50.130;8.526;2022-07-23T17:25:58;3.42;;;1.95;;
27684;SDS011;46113;50.130;8.526;2022-07-23T17:28:26;4.35;;;2.95;;
27684;SDS011;46113;50.130;8.526;2022-07-23T17:30:53;3.20;;;2.70;;
27684;SDS011;46113;50.130;8.526;2022-07-23T17:33:20;7.88;;;2.60;;
27684;SDS011;46113;50.130;8.526;2022-07-23T17:35:47;2.35;;;1.88;;
27684;SDS011;46113;50.130;8.526;2022-07-23T17:38:18;2.75;;;2.38;;
27684;SDS011;46113;50.130;8.526;2022-07-23T17:40:45;2.40;;;1.95;;
27684;SDS011;46113;50.130;8.526;2022-07-23T17:43:12;2.20;;;2.00;;
27684;SDS011;46113;50.130;8.526;2022-07-23T17:45:39;3.45;;;2.10;;
27684;SDS011;46113;50.130;8.526;2022-07-23T17:48:08;2.85;;;2.40;;
27684;SDS011;46113;50.130;8.526;2022-07-23T17:50:35;5.55;;;3.85;;
27684;SDS011;46113;50.130;8.526;2022-07-23T17:53:02;4.53;;;2.20;;
27684;SDS011;46113;50.130;8.526;2022-07-23T17:55:30;3.40;;;2.25;;
27684;SDS011;46113;50.130;8.526;2022-07-23T17:57:59;3.00;;;2.15;;
27684;SDS011;46113;50.130;8.526;2022-07-23T18:00:30;2.33;;;2.10;;
27684;SDS011;46113;50.130;8.526;2022-07-23T18:02:59;3.70;;;2.38;;
27684;SDS011;46113;50.130;8.526;2022-07-23T18:05:32;3.13;;;2.28;;
27684;SDS011;46113;50.130;8.526;2022-07-23T18:07:59;1.95;;;1.85;;
27684;SDS011;46113;50.130;8.526;2022-07-23T18:10:29;3.53;;;1.77;;
27684;SDS011;46113;50.130;8.526;2022-07-23T18:12:56;3.80;;;1.95;;
27684;SDS011;46113;50.130;8.526;2022-07-23T18:15:23;2.30;;;1.98;;
27684;SDS011;46113;50.130;8.526;2022-07-23T18:17:50;2.63;;;2.42;;
27684;SDS011;46113;50.130;8.526;2022-07-23T18:23:18;6.32;;;2.45;;
27684;SDS011;46113;50.130;8.526;2022-07-23T18:25:45;2.13;;;1.90;;
27684;SDS011;46113;50.130;8.526;2022-07-23T18:28:12;2.85;;;2.22;;
27684;SDS011;46113;50.130;8.526;2022-07-23T18:30:38;2.50;;;2.30;;
27684;SDS011;46113;50.130;8.526;2022-07-23T18:33:05;3.15;;;1.95;;
27684;SDS011;46113;50.130;8.526;2022-07-23T18:35:33;2.58;;;2.28;;
27684;SDS011;46113;50.130;8.526;2022-07-23T18:38:00;2.42;;;1.80;;
27684;SDS011;46113;50.130;8.526;2022-07-23T18:40:27;3.55;;;2.70;;
27684;SDS011;46113;50.130;8.526;2022-07-23T18:42:54;2.20;;;2.00;;
27684;SDS011;46113;50.130;8.526;2022-07-23T18:45:22;4.68;;;2.53;;
27684;SDS011;46113;50.130;8.526;2022-07-23T18:47:49;2.20;;;1.80;;
27684;SDS011;46113;50.130;8.526;2022-07-23T18:50:17;4.38;;;2.35;;
27684;SDS011;46113;50.130;8.526;2022-07-23T18:52:44;2.35;;;2.13;;
27684;SDS011;46113;50.130;8.526;2022-07-23T18:55:11;3.65;;;2.05;;
27684;SDS011;46113;50.130;8.526;2022-07-23T18:57:38;2.63;;;2.05;;
27684;SDS011;46113;50.130;8.526;2022-07-23T19:00:05;2.55;;;2.22;;
27684;SDS011;46113;50.130;8.526;2022-07-23T19:02:33;2.90;;;2.15;;
27684;SDS011;46113;50.130;8.526;2022-07-23T19:05:00;3.00;;;2.47;;
27684;SDS011;46113;50.130;8.526;2022-07-23T19:07:27;3.03;;;2.40;;
27684;SDS011;46113;50.130;8.526;2022-07-23T19:09:53;3.92;;;2.22;;
27684;SDS011;46113;50.130;8.526;2022-07-23T19:12:20;2.10;;;1.90;;
27684;SDS011;46113;50.130;8.526;2022-07-23T19:14:46;2.47;;;1.83;;
27684;SDS011;46113;50.130;8.526;2022-07-23T19:17:13;2.53;;;2.20;;
27684;SDS011;46113;50.130;8.526;2022-07-23T19:19:40;2.15;;;1.95;;
27684;SDS011;46113;50.130;8.526;2022-07-23T19:22:06;4.85;;;2.22;;
27684;SDS011;46113;50.130;8.526;2022-07-23T19:24:35;3.00;;;2.13;;
27684;SDS011;46113;50.130;8.526;2022-07-23T19:27:01;4.55;;;2.45;;
27684;SDS011;46113;50.130;8.526;2022-07-23T19:29:32;4.57;;;2.42;;
27684;SDS011;46113;50.130;8.526;2022-07-23T19:32:02;2.30;;;2.10;;
27684;SDS011;46113;50.130;8.526;2022-07-23T19:34:30;3.92;;;2.45;;
27684;SDS011;46113;50.130;8.526;2022-07-23T19:36:57;3.00;;;2.50;;
27684;SDS011;46113;50.130;8.526;2022-07-23T19:39:24;4.20;;;2.67;;
27684;SDS011;46113;50.130;8.526;2022-07-23T19:41:51;2.40;;;2.20;;
27684;SDS011;46113;50.130;8.526;2022-07-23T19:44:18;2.40;;;2.20;;
27684;SDS011;46113;50.130;8.526;2022-07-23T19:46:45;2.13;;;1.83;;
27684;SDS011;46113;50.130;8.526;2022-07-23T19:49:11;2.42;;;2.10;;
27684;SDS011;46113;50.130;8.526;2022-07-23T19:51:38;2.80;;;2.17;;
27684;SDS011;46113;50.130;8.526;2022-07-23T19:54:05;3.58;;;2.30;;
27684;SDS011;46113;50.130;8.526;2022-07-23T19:56:31;3.15;;;2.20;;
27684;SDS011;46113;50.130;8.526;2022-07-23T19:58:58;2.75;;;2.45;;
27684;SDS011;46113;50.130;8.526;2022-07-23T20:01:25;2.78;;;2.10;;
27684;SDS011;46113;50.130;8.526;2022-07-23T20:03:51;2.70;;;2.50;;
27684;SDS011;46113;50.130;8.526;2022-07-23T20:06:18;4.57;;;2.65;;
27684;SDS011;46113;50.130;8.526;2022-07-23T20:08:44;2.38;;;2.08;;
27684;SDS011;46113;50.130;8.526;2022-07-23T20:11:11;2.63;;;2.42;;
27684;SDS011;46113;50.130;8.526;2022-07-23T20:13:38;2.50;;;2.30;;
27684;SDS011;46113;50.130;8.526;2022-07-23T20:16:04;3.47;;;1.75;;
27684;SDS011;46113;50.130;8.526;2022-07-23T20:18:31;3.20;;;2.08;;